Weather observations for the past three days for
Midland, Midland International Airport
Metric (Imperial)
Date Time (cdt) Wind (kph) Vis. (km) Weather Sky Cond. Temperature (ºC) Relative Humidity Wind Chill (°C) Heat Index (°C) Pressure Precipitation (cm)
Air Dwpt 6 hour altimeter (cm) sea level (mb) 1 hr 3 hr 6 hr
Max. Min.
10 10:53 SW 28 G 39 16.09 Fair CLR 29.4 12.8 36% 29 75.95 1007.1
10 09:53 S 26 G 41 16.09 Fair CLR 26.1 14.4 49% 27 75.95 1007.3
10 08:53 S 28 G 41 16.09 Fair CLR 24.4 15 56% 26 75.9 1006.8
10 07:53 S 20 14.48 Fair CLR 21.7 14.4 63% 75.84 1006.2
10 05:53 S 19 14.48 Fair CLR 21.7 13.9 61% 75.79 1005.2
10 04:53 S 15 14.48 Fair CLR 21.7 13.3 59% 75.77 1005.0
10 03:53 S 22 16.09 Fair CLR 22.8 12.8 53% 75.77 1005.0
10 02:53 S 19 16.09 Fair CLR 22.8 12.8 53% 75.77 1005.1
10 01:53 S 28 16.09 Fair CLR 24.4 11.1 43% 26 75.82 1005.5
10 00:53 S 24 16.09 Fair CLR 25 10 33.9 25 39% 26 75.79 1005.5
09 23:53 S 24 G 44 16.09 Fair CLR 26.1 8.9 34% 26 75.79 1005.5
09 22:53 S 22 16.09 Fair CLR 27.2 5.6 25% 26 75.79 1005.3
09 21:53 S 22 16.09 Fair CLR 28.3 5.6 24% 27 75.77 1005.1
09 20:53 S 24 16.09 Fair CLR 30.6 4.4 19% 29 75.69 1004.4
09 19:53 S 20 16.09 Fair CLR 32.8 2.2 14% 30 75.67 1003.9
09 18:53 SW 15 G 31 16.09 Fair CLR 33.9 0.6 34.4 30 12% 31 75.67 1004.2
09 17:53 SW 19 G 30 16.09 Fair CLR 33.9 0.6 12% 31 75.69 1004.4
09 16:53 S 9 16.09 Fair CLR 33.3 2.8 14% 31 75.74 1004.8
09 15:53 SW 22 G 33 16.09 Fair CLR 32.8 3.3 15% 31 75.79 1005.7
09 14:53 S 24 G 39 16.09 Fair CLR 32.2 5.6 19% 30 75.87 1006.7
09 13:53 S 9 G 28 16.09 Fair CLR 31.1 7.8 23% 29 75.92 1007.4
09 12:53 SW 19 16.09 Fair CLR 30.6 8.9 30.6 16.1 26% 29 75.97 1008.1
09 11:53 SW 19 16.09 Fair CLR 28.3 10 32% 27 76.02 1008.7
09 10:53 SW 20 16.09 Fair CLR 26.7 11.7 39% 27 76.02 1008.9
09 09:53 SW 15 12.87 Fair CLR 23.9 12.8 50% 25 76.07 1009.6
09 08:53 SW 13 14.48 Fair CLR 20.6 15.6 73% 76.05 1009.7
09 07:53 S 11 8.05 Fair with Haze CLR 17.8 15 84% 76.02 1009.2
09 06:53 SW 6 11.27 Fair CLR 16.1 13.9 20.6 16.1 87% 75.97 1008.7
09 05:53 S 13 12.87 Fair CLR 18.3 13.9 76% 75.92 1007.8
09 04:53 S 15 14.48 Fair CLR 18.9 13.9 73% 75.92 1007.9
09 03:53 S 11 14.48 Fair CLR 18.3 13.9 76% 75.92 1008.0
09 02:53 SE 9 16.09 Fair CLR 20 13.3 65% 75.95 1008.6
09 01:53 SE 9 G 28 16.09 Fair CLR 18.9 11.7 63% 75.9 1008.1
09 00:53 SE 11 16.09 Fair CLR 20 11.7 28.3 20 59% 75.87 1008.0
08 22:53 S 13 16.09 Fair CLR 23.3 11.7 48% 75.87 1007.7
08 21:53 S 15 16.09 Fair CLR 24.4 10 40% 25 75.82 1007.0
08 20:53 S 15 16.09 Fair CLR 26.1 8.9 34% 26 75.77 1006.1
08 19:53 SE 19 16.09 Fair CLR 27.2 8.9 32% 27 75.72 1005.4
08 18:53 S 11 16.09 Fair CLR 28.3 7.8 29.4 18.9 27% 27 75.69 1004.9
08 17:53 NW 7 16.09 Fair CLR 28.9 8.3 27% 28 75.69 1004.7
08 16:53 S 7 16.09 Fair CLR 27.2 10.6 35% 27 75.72 1005.1
08 15:53 SW 9 16.09 Fair CLR 25.6 11.7 42% 26 75.77 1006.2
08 14:53 SW 7 16.09 Fair CLR 23.9 13.3 52% 25 75.84 1007.6
08 13:53 S 7 16.09 Fair CLR 21.1 13.9 64% 75.92 1008.7
08 12:53 SE 7 16.09 Overcast OVC018 18.9 13.9 18.9 16.1 73% 76 1009.9
08 11:53 S 11 16.09 Overcast OVC011 17.2 13.9 81% 76.05 1010.8
08 10:53 SW 9 14.48 Overcast OVC009 16.7 13.9 84% 76.07 1011.2
08 09:53 S 17 16.09 Overcast OVC008 16.7 14.4 86% 76.07 1011.1
08 08:53 S 9 16.09 Overcast OVC010 16.7 14.4 86% 76.1 1011.2
08 07:53 S 15 11.27 Overcast OVC006 16.7 14.4 86% 76.07 1010.6
08 06:53 SE 15 9.66 Fog/Mist OVC007 16.1 15 17.2 15.6 93% 76.02 1010.1
08 05:53 S 17 16.09 Overcast OVC009 17.2 14.4 84% 76.05 1010.3
08 04:53 SE 13 16.09 Overcast OVC012 16.7 12.8 78% 76.02 1009.9
08 03:53 SE 9 16.09 Overcast OVC018 16.7 12.8 78% 76.07 1010.5
08 02:53 Calm 16.09 Overcast OVC019 16.1 12.8 81% 76.1 1011.0
08 01:53 S 9 16.09 Mostly Cloudy BKN022 15.6 12.2 80% 76.15 1011.9
08 00:53 S 11 16.09 Mostly Cloudy BKN010 15.6 11.7 22.8 15.6 78% 76.15 1012.2
07 23:53 S 20 16.09 Fair CLR 16.1 11.7 75% 76.15 1012.2
07 22:53 SE 22 16.09 Fair CLR 16.1 9.4 65% 76.17 1012.9
07 21:53 SE 13 16.09 Overcast OVC044 17.8 7.8 52% 76.23 1013.1
07 20:53 SE 22 16.09 Overcast OVC046 19.4 6.1 42% 76.15 1012.2
07 19:53 SE 28 16.09 Mostly Cloudy BKN060 20.6 6.7 41% 76.12 1011.8
07 18:53 SE 24 16.09 A Few Clouds FEW065 22.2 7.2 24.4 18.9 38% 76.1 1011.6
07 17:53 SE 26 G 39 16.09 Partly Cloudy SCT075 23.9 7.2 34% 25 76.1 1011.4
07 16:53 E 20 G 33 16.09 Mostly Cloudy BKN075 23.9 6.7 33% 25 76.15 1011.9
07 15:53 E 22 G 30 16.09 A Few Clouds FEW080 23.9 6.1 32% 25 76.23 1012.6
07 14:53 SE 7 16.09 Fair CLR 21.7 6.1 36% 76.28 1013.7
07 13:53 Vrbl 7 16.09 Fair CLR 20.6 6.1 39% 76.38 1014.9
07 12:53 Vrbl 7 16.09 Fair CLR 18.9 6.1 19.4 11.1 43% 76.45 1016.0
07 11:53 NE 20 16.09 Fair CLR 17.2 6.1 48% 76.5 1016.8
Date Time (cdt) Wind (kph) Vis. (km) Weather Sky Cond. Air Dwpt Max. Min. Relative Humidity Wind Chill (°C) Heat Index (°C) altimeter (cm) sea level (mb) 1 hr 3 hr 6 hr
6 hour
Temperature (ºC) Pressure Precipitation (cm)